createdAt,value
2017-10-30T00:00:59.973Z,2.80
2017-10-30T00:02:05.708Z,2.50
2017-10-30T00:03:11.509Z,3.03
2017-10-30T00:04:17.264Z,1.80
2017-10-30T00:05:23.025Z,2.75
2017-10-30T00:06:28.773Z,2.03
2017-10-30T00:07:34.518Z,2.20
2017-10-30T00:08:40.305Z,2.58
2017-10-30T00:09:46.069Z,1.95
2017-10-30T00:10:51.819Z,2.42
2017-10-30T00:11:57.577Z,2.45
2017-10-30T00:13:03.332Z,1.40
2017-10-30T00:14:09.091Z,2.60
2017-10-30T00:15:15.944Z,1.90
2017-10-30T00:16:22.445Z,2.35
2017-10-30T00:17:28.209Z,1.20
2017-10-30T00:18:33.763Z,2.45
2017-10-30T00:19:39.537Z,2.17
2017-10-30T00:20:46.046Z,1.98
2017-10-30T00:21:51.797Z,3.70
2017-10-30T00:22:57.569Z,2.53
2017-10-30T00:24:04.813Z,1.60
2017-10-30T00:25:10.597Z,1.77
2017-10-30T00:26:20.049Z,1.65
2017-10-30T00:27:25.800Z,1.98
2017-10-30T00:28:36.229Z,1.45
2017-10-30T00:29:42.741Z,2.90
2017-10-30T00:30:48.509Z,2.97
2017-10-30T00:31:54.262Z,2.10
2017-10-30T00:33:00.009Z,2.60
2017-10-30T00:34:05.774Z,2.30
2017-10-30T00:35:11.543Z,2.60
2017-10-30T00:36:17.300Z,1.40
2017-10-30T00:37:23.047Z,2.45
2017-10-30T00:38:29.573Z,1.95
2017-10-30T00:39:35.324Z,2.22
2017-10-30T00:40:41.064Z,1.50
2017-10-30T00:41:46.847Z,1.42
2017-10-30T00:42:51.633Z,1.85
2017-10-30T00:43:57.387Z,1.80
2017-10-30T00:45:03.182Z,2.50
2017-10-30T00:46:08.722Z,2.03
2017-10-30T00:47:14.492Z,2.47
2017-10-30T00:48:20.233Z,1.77
2017-10-30T00:49:25.993Z,2.35
2017-10-30T00:50:31.743Z,1.67
2017-10-30T00:51:38.278Z,1.60
2017-10-30T00:52:44.045Z,2.65
2017-10-30T00:53:49.779Z,1.70
2017-10-30T00:54:55.527Z,2.28
2017-10-30T00:56:01.333Z,2.08
2017-10-30T00:57:07.103Z,2.45
2017-10-30T00:58:12.666Z,1.90
2017-10-30T00:59:19.185Z,1.52
2017-10-30T01:00:24.927Z,1.92
2017-10-30T01:01:30.942Z,1.90
2017-10-30T01:02:36.671Z,1.50
2017-10-30T01:03:42.436Z,1.73
2017-10-30T01:04:48.184Z,1.45
2017-10-30T01:05:53.920Z,1.80
2017-10-30T01:06:59.663Z,1.77
2017-10-30T01:08:05.395Z,1.80
2017-10-30T01:09:11.173Z,1.98
2017-10-30T01:10:16.904Z,1.25
2017-10-30T01:11:22.656Z,2.45
2017-10-30T01:12:28.402Z,2.12
2017-10-30T01:13:34.134Z,1.87
2017-10-30T01:14:39.896Z,1.10
2017-10-30T01:15:45.671Z,2.10
2017-10-30T01:16:51.442Z,2.55
2017-10-30T01:17:56.997Z,1.55
2017-10-30T01:19:02.572Z,1.30
2017-10-30T01:20:09.247Z,1.92
2017-10-30T01:21:15.003Z,2.20
2017-10-30T01:22:20.532Z,1.30
2017-10-30T01:23:26.277Z,1.42
2017-10-30T01:24:32.013Z,1.10
2017-10-30T01:25:37.815Z,1.95
2017-10-30T01:26:43.815Z,1.42
2017-10-30T01:27:49.348Z,2.20
2017-10-30T01:28:55.124Z,1.45
2017-10-30T01:30:00.866Z,1.45
2017-10-30T01:31:06.629Z,1.50
2017-10-30T01:32:13.128Z,2.03
2017-10-30T01:33:18.664Z,1.12
2017-10-30T01:34:24.412Z,1.55
2017-10-30T01:35:30.149Z,2.00
2017-10-30T01:36:35.693Z,1.30
2017-10-30T01:37:41.455Z,2.25
2017-10-30T01:38:47.461Z,3.22
2017-10-30T01:39:52.883Z,1.80
2017-10-30T01:40:59.417Z,1.92
2017-10-30T01:42:04.590Z,1.50
2017-10-30T01:43:10.342Z,2.03
2017-10-30T01:44:16.080Z,1.50
2017-10-30T01:45:21.833Z,2.08
2017-10-30T01:46:27.577Z,1.90
2017-10-30T01:47:33.336Z,1.62
2017-10-30T01:48:39.081Z,1.65
2017-10-30T01:49:44.871Z,2.65
2017-10-30T01:50:50.642Z,1.10
2017-10-30T01:51:56.394Z,1.42
2017-10-30T01:53:02.161Z,1.37
2017-10-30T01:54:09.226Z,1.30
2017-10-30T01:55:14.069Z,1.27
2017-10-30T01:56:20.241Z,1.80
2017-10-30T01:57:25.299Z,1.10
2017-10-30T01:58:30.405Z,1.50
2017-10-30T01:59:36.249Z,1.90
2017-10-30T02:00:42.003Z,1.40
2017-10-30T02:01:47.775Z,1.95
2017-10-30T02:02:52.731Z,1.52
2017-10-30T02:03:58.690Z,1.45
2017-10-30T02:05:05.277Z,1.00
2017-10-30T02:06:11.009Z,2.03
2017-10-30T02:07:16.757Z,1.70
2017-10-30T02:08:23.273Z,2.00
2017-10-30T02:09:29.050Z,1.75
2017-10-30T02:10:35.609Z,2.45
2017-10-30T02:11:42.125Z,2.05
2017-10-30T02:12:47.533Z,1.30
2017-10-30T02:13:53.274Z,1.80
2017-10-30T02:14:58.833Z,2.17
2017-10-30T02:16:04.570Z,1.85
2017-10-30T02:17:10.321Z,1.83
2017-10-30T02:18:16.085Z,1.58
2017-10-30T02:19:21.499Z,1.15
2017-10-30T02:20:26.467Z,1.62
2017-10-30T02:21:31.874Z,2.08
2017-10-30T02:22:37.613Z,1.95
2017-10-30T02:23:43.028Z,1.20
2017-10-30T02:24:48.782Z,1.23
2017-10-30T02:25:53.879Z,1.40
2017-10-30T02:26:58.920Z,1.90
2017-10-30T02:28:04.351Z,1.40
2017-10-30T02:29:10.116Z,1.80
2017-10-30T02:30:15.175Z,1.70
2017-10-30T02:31:21.434Z,1.87
2017-10-30T02:32:27.248Z,1.58
2017-10-30T02:33:33.028Z,1.65
2017-10-30T02:34:38.422Z,1.45
2017-10-30T02:35:43.826Z,2.15
2017-10-30T02:36:48.912Z,2.30
2017-10-30T02:37:54.747Z,1.85
2017-10-30T02:39:00.565Z,1.50
2017-10-30T02:40:07.125Z,2.17
2017-10-30T02:41:12.334Z,2.97
2017-10-30T02:42:17.414Z,2.22
2017-10-30T02:43:23.918Z,1.45
2017-10-30T02:44:29.325Z,1.62
2017-10-30T02:45:34.745Z,1.37
2017-10-30T02:46:40.926Z,1.30
2017-10-30T02:47:46.363Z,1.20
2017-10-30T02:48:51.762Z,1.25
2017-10-30T02:49:56.812Z,1.67
2017-10-30T02:51:02.245Z,2.22
2017-10-30T02:52:07.318Z,2.70
2017-10-30T02:53:12.407Z,1.52
2017-10-30T02:54:17.806Z,1.92
2017-10-30T02:55:24.439Z,1.70
2017-10-30T02:56:30.218Z,2.15
2017-10-30T02:57:35.957Z,1.30
2017-10-30T02:58:41.721Z,1.80
2017-10-30T02:59:47.133Z,1.77
2017-10-30T03:00:52.198Z,1.90
2017-10-30T03:01:57.245Z,3.33
2017-10-30T03:03:02.663Z,1.80
2017-10-30T03:04:08.082Z,1.62
2017-10-30T03:05:13.316Z,1.90
2017-10-30T03:06:18.373Z,1.27
2017-10-30T03:07:24.542Z,1.70
2017-10-30T03:08:29.952Z,1.30
2017-10-30T03:09:35.374Z,1.67
2017-10-30T03:10:41.113Z,1.27
2017-10-30T03:11:46.156Z,1.52
2017-10-30T03:12:53.050Z,1.30
2017-10-30T03:13:59.210Z,1.75
2017-10-30T03:15:04.630Z,1.25
2017-10-30T03:16:10.461Z,1.50
2017-10-30T03:17:16.101Z,1.83
2017-10-30T03:18:21.909Z,1.95
2017-10-30T03:19:26.784Z,1.48
2017-10-30T03:20:31.849Z,2.00
2017-10-30T03:21:36.910Z,1.40
2017-10-30T03:22:42.744Z,2.25
2017-10-30T03:23:48.188Z,2.37
2017-10-30T03:24:53.221Z,1.17
2017-10-30T03:25:59.757Z,1.00
2017-10-30T03:27:05.152Z,3.00
2017-10-30T03:28:09.991Z,1.73
2017-10-30T03:29:15.181Z,2.10
2017-10-30T03:30:20.232Z,1.58
2017-10-30T03:31:25.658Z,3.95
2017-10-30T03:32:31.082Z,1.83
2017-10-30T03:33:36.624Z,1.45
2017-10-30T03:34:42.366Z,1.25
2017-10-30T03:35:48.111Z,1.23
2017-10-30T03:36:53.872Z,1.37
2017-10-30T03:37:59.636Z,1.87
2017-10-30T03:39:05.225Z,2.10
2017-10-30T03:40:10.408Z,1.50
2017-10-30T03:41:16.921Z,1.33
2017-10-30T03:42:22.690Z,1.73
2017-10-30T03:43:29.598Z,1.83
2017-10-30T03:44:36.120Z,1.10
2017-10-30T03:45:41.198Z,1.70
2017-10-30T03:46:46.953Z,1.42
2017-10-30T03:47:52.731Z,1.37
2017-10-30T03:48:58.465Z,1.95
2017-10-30T03:50:04.208Z,1.52
2017-10-30T03:51:09.953Z,1.75
2017-10-30T03:52:15.706Z,1.98
2017-10-30T03:53:21.480Z,1.90
2017-10-30T03:54:27.225Z,1.92
2017-10-30T03:55:32.986Z,2.00
2017-10-30T03:56:38.962Z,2.12
2017-10-30T03:57:44.716Z,2.05
2017-10-30T03:58:50.492Z,1.27
2017-10-30T03:59:56.245Z,1.15
2017-10-30T04:01:01.987Z,1.60
2017-10-30T04:02:07.812Z,1.42
2017-10-30T04:03:14.331Z,1.60
2017-10-30T04:04:19.905Z,1.65
2017-10-30T04:05:26.412Z,1.37
2017-10-30T04:06:32.158Z,1.65
2017-10-30T04:07:37.889Z,1.62
2017-10-30T04:08:43.629Z,2.15
2017-10-30T04:09:49.448Z,1.20
2017-10-30T04:10:55.189Z,1.05
2017-10-30T04:12:01.740Z,1.35
2017-10-30T04:13:08.321Z,1.00
2017-10-30T04:14:14.556Z,1.55
2017-10-30T04:15:21.083Z,2.00
2017-10-30T04:16:26.820Z,1.45
2017-10-30T04:17:32.558Z,1.10
2017-10-30T04:18:38.309Z,2.03
2017-10-30T04:19:44.041Z,1.50
2017-10-30T04:20:49.814Z,2.00
2017-10-30T04:21:55.545Z,2.03
2017-10-30T04:23:01.127Z,3.10
2017-10-30T04:24:06.858Z,1.50
2017-10-30T04:25:12.597Z,1.17
2017-10-30T04:26:19.141Z,2.03
2017-10-30T04:27:25.654Z,1.30
2017-10-30T04:28:31.385Z,1.10
2017-10-30T04:29:37.156Z,2.20
2017-10-30T04:30:42.910Z,2.03
2017-10-30T04:31:48.683Z,1.55
2017-10-30T04:32:54.176Z,1.50
2017-10-30T04:33:59.934Z,1.62
2017-10-30T04:35:06.461Z,2.65
2017-10-30T04:36:12.211Z,1.20
2017-10-30T04:37:17.987Z,2.40
2017-10-30T04:38:24.500Z,1.58
2017-10-30T04:39:30.245Z,1.60
2017-10-30T04:40:35.987Z,1.23
2017-10-30T04:41:41.735Z,2.47
2017-10-30T04:42:47.502Z,1.15
2017-10-30T04:43:53.247Z,1.83
2017-10-30T04:44:59.529Z,1.27
2017-10-30T04:46:05.271Z,1.27
2017-10-30T04:47:11.007Z,1.27
2017-10-30T04:48:16.778Z,1.10
2017-10-30T04:49:22.528Z,1.50
2017-10-30T04:50:28.269Z,1.60
2017-10-30T04:51:33.841Z,1.02
2017-10-30T04:52:39.570Z,1.40
2017-10-30T04:53:45.351Z,1.50
2017-10-30T04:54:51.093Z,1.10
2017-10-30T04:55:56.824Z,0.90
2017-10-30T04:57:02.578Z,2.30
2017-10-30T04:58:09.095Z,1.60
2017-10-30T04:59:14.735Z,1.77
2017-10-30T05:00:20.485Z,1.50
2017-10-30T05:01:26.241Z,1.20
2017-10-30T05:02:32.749Z,1.85
2017-10-30T05:03:38.495Z,1.23
2017-10-30T05:04:44.104Z,1.10
2017-10-30T05:05:49.849Z,1.62
2017-10-30T05:06:55.597Z,1.25
2017-10-30T05:08:01.139Z,1.40
2017-10-30T05:09:06.560Z,1.35
2017-10-30T05:10:12.325Z,1.33
2017-10-30T05:11:18.084Z,1.30
2017-10-30T05:12:23.822Z,1.23
2017-10-30T05:13:29.561Z,2.60
2017-10-30T05:14:35.296Z,1.15
2017-10-30T05:15:40.865Z,1.12
2017-10-30T05:16:47.374Z,1.55
2017-10-30T05:17:53.116Z,1.40
2017-10-30T05:18:58.853Z,1.23
2017-10-30T05:20:04.593Z,2.55
2017-10-30T05:21:10.367Z,1.83
2017-10-30T05:22:16.344Z,1.37
2017-10-30T05:23:22.840Z,2.62
2017-10-30T05:24:28.577Z,0.90
2017-10-30T05:25:34.317Z,1.35
2017-10-30T05:26:40.086Z,1.10
2017-10-30T05:27:45.824Z,1.75
2017-10-30T05:28:51.562Z,1.10
2017-10-30T05:29:57.296Z,1.37
2017-10-30T05:31:03.048Z,0.98
2017-10-30T05:32:08.804Z,0.90
2017-10-30T05:33:16.046Z,1.10
2017-10-30T05:34:21.790Z,0.90
2017-10-30T05:35:27.533Z,1.65
2017-10-30T05:36:33.269Z,1.73
2017-10-30T05:37:39.038Z,1.15
2017-10-30T05:38:44.778Z,1.10
2017-10-30T05:39:50.519Z,1.00
2017-10-30T05:40:56.313Z,2.08
2017-10-30T05:42:02.805Z,1.00
2017-10-30T05:43:08.573Z,1.30
2017-10-30T05:44:13.974Z,1.83
2017-10-30T05:45:19.723Z,1.40
2017-10-30T05:46:25.475Z,1.45
2017-10-30T05:47:31.228Z,1.12
2017-10-30T05:48:37.757Z,1.17
2017-10-30T05:49:43.505Z,1.00
2017-10-30T05:50:49.237Z,1.77
2017-10-30T05:51:54.978Z,1.83
2017-10-30T05:53:00.730Z,1.75
2017-10-30T05:54:06.502Z,1.45
2017-10-30T05:55:12.251Z,0.98
2017-10-30T05:56:17.981Z,1.50
2017-10-30T05:57:23.717Z,1.00
2017-10-30T05:58:29.460Z,1.92
2017-10-30T05:59:35.228Z,1.45
2017-10-30T06:00:41.724Z,1.90
2017-10-30T06:01:47.464Z,1.27
2017-10-30T06:02:53.213Z,1.95
2017-10-30T06:03:58.962Z,1.40
2017-10-30T06:05:04.717Z,1.23
2017-10-30T06:06:10.453Z,1.52
2017-10-30T06:07:16.189Z,1.30
2017-10-30T06:08:21.999Z,1.20
2017-10-30T06:09:27.737Z,1.60
2017-10-30T06:10:33.308Z,1.10
2017-10-30T06:11:39.049Z,1.15
2017-10-30T06:12:44.797Z,1.17
2017-10-30T06:13:50.558Z,3.60
2017-10-30T06:14:56.098Z,1.40
2017-10-30T06:16:02.634Z,0.90
2017-10-30T06:17:08.363Z,0.82
2017-10-30T06:18:14.096Z,1.27
2017-10-30T06:19:19.846Z,1.10
2017-10-30T06:20:25.593Z,1.80
2017-10-30T06:21:31.369Z,1.40
2017-10-30T06:22:37.897Z,1.30
2017-10-30T06:23:43.622Z,0.90
2017-10-30T06:24:49.360Z,1.35
2017-10-30T06:25:55.097Z,1.15
2017-10-30T06:27:00.878Z,1.45
2017-10-30T06:28:06.617Z,1.10
2017-10-30T06:29:12.365Z,1.17
2017-10-30T06:30:18.109Z,1.60
2017-10-30T06:31:23.858Z,1.30
2017-10-30T06:32:29.618Z,1.15
2017-10-30T06:33:36.130Z,1.65
2017-10-30T06:34:41.885Z,1.35
2017-10-30T06:35:47.622Z,1.77
2017-10-30T06:36:53.364Z,1.77
2017-10-30T06:37:58.779Z,1.05
2017-10-30T06:39:04.873Z,1.17
2017-10-30T06:40:11.385Z,1.60
2017-10-30T06:41:17.114Z,1.50
2017-10-30T06:42:22.857Z,1.85
2017-10-30T06:43:28.616Z,1.55
2017-10-30T06:44:34.351Z,1.20
2017-10-30T06:45:40.100Z,1.35
2017-10-30T06:46:45.844Z,1.40
2017-10-30T06:47:51.580Z,1.35
2017-10-30T06:48:57.358Z,1.58
2017-10-30T06:50:03.629Z,1.30
2017-10-30T06:51:10.500Z,1.37
2017-10-30T06:52:17.120Z,1.95
2017-10-30T06:53:23.636Z,1.92
2017-10-30T06:54:29.395Z,1.23
2017-10-30T06:55:35.155Z,1.00
2017-10-30T06:56:40.687Z,1.55
2017-10-30T06:57:46.441Z,1.40
2017-10-30T06:58:52.177Z,1.10
2017-10-30T06:59:58.001Z,1.40
2017-10-30T07:01:03.746Z,2.25
2017-10-30T07:02:08.541Z,1.10
2017-10-30T07:03:13.950Z,1.15
2017-10-30T07:04:20.472Z,1.62
2017-10-30T07:05:26.426Z,1.52
2017-10-30T07:06:32.183Z,1.20
2017-10-30T07:07:38.704Z,1.35
2017-10-30T07:08:44.461Z,1.10
2017-10-30T07:09:50.205Z,1.37
2017-10-30T07:10:56.354Z,1.20
2017-10-30T07:12:02.123Z,1.42
2017-10-30T07:13:08.639Z,1.20
2017-10-30T07:14:14.384Z,1.65
2017-10-30T07:15:20.120Z,2.20
2017-10-30T07:16:25.201Z,1.60
2017-10-30T07:17:31.718Z,1.17
2017-10-30T07:18:37.457Z,2.08
2017-10-30T07:19:43.200Z,1.40
2017-10-30T07:20:48.932Z,1.02
2017-10-30T07:21:54.711Z,1.35
2017-10-30T07:23:01.226Z,1.65
2017-10-30T07:24:06.866Z,1.45
2017-10-30T07:25:12.954Z,1.30
2017-10-30T07:26:19.188Z,1.35
2017-10-30T07:27:25.748Z,1.10
2017-10-30T07:28:31.533Z,1.20
2017-10-30T07:29:38.075Z,1.52
2017-10-30T07:30:43.824Z,1.20
2017-10-30T07:31:50.331Z,1.10
2017-10-30T07:32:56.175Z,2.17
2017-10-30T07:34:01.944Z,1.05
2017-10-30T07:35:07.695Z,0.93
2017-10-30T07:36:14.231Z,1.35
2017-10-30T07:37:19.971Z,1.20
2017-10-30T07:38:25.740Z,1.00
2017-10-30T07:39:32.269Z,1.77
2017-10-30T07:40:38.015Z,0.90
2017-10-30T07:41:43.762Z,1.58
2017-10-30T07:42:49.499Z,1.77
2017-10-30T07:43:55.269Z,1.65
2017-10-30T07:45:01.801Z,1.20
2017-10-30T07:46:07.539Z,1.00
2017-10-30T07:47:13.532Z,1.00
2017-10-30T07:48:20.057Z,1.40
2017-10-30T07:49:25.841Z,1.80
2017-10-30T07:50:31.578Z,1.08
2017-10-30T07:51:37.393Z,1.00
2017-10-30T07:52:43.147Z,1.17
2017-10-30T07:53:49.302Z,1.35
2017-10-30T07:54:54.377Z,0.88
2017-10-30T07:55:59.777Z,1.08
2017-10-30T07:57:04.851Z,0.90
2017-10-30T07:58:10.256Z,0.88
2017-10-30T07:59:15.564Z,1.27
2017-10-30T08:00:20.395Z,0.90
2017-10-30T08:01:26.133Z,1.58
2017-10-30T08:02:31.541Z,1.33
2017-10-30T08:03:37.714Z,1.65
2017-10-30T08:04:43.482Z,1.30
2017-10-30T08:05:48.984Z,1.33
2017-10-30T08:06:55.182Z,1.27
2017-10-30T08:08:00.277Z,1.00
2017-10-30T08:09:04.884Z,1.17
2017-10-30T08:10:10.513Z,1.20
2017-10-30T08:11:17.057Z,1.10
2017-10-30T08:12:23.240Z,1.00
2017-10-30T08:13:29.350Z,1.75
2017-10-30T08:14:35.188Z,1.10
2017-10-30T08:15:40.601Z,0.90
2017-10-30T08:16:45.704Z,1.55
2017-10-30T08:17:51.473Z,1.20
2017-10-30T08:18:56.880Z,0.70
2017-10-30T08:20:02.082Z,1.00
2017-10-30T08:21:07.844Z,1.10
2017-10-30T08:22:13.620Z,0.88
2017-10-30T08:23:18.687Z,1.00
2017-10-30T08:24:24.105Z,1.75
2017-10-30T08:25:29.929Z,1.45
2017-10-30T08:26:35.955Z,1.10
2017-10-30T08:27:41.784Z,1.15
2017-10-30T08:28:47.205Z,1.15
2017-10-30T08:29:53.381Z,1.25
2017-10-30T08:30:58.453Z,2.28
2017-10-30T08:32:03.501Z,1.65
2017-10-30T08:33:10.221Z,0.90
2017-10-30T08:34:15.988Z,1.00
2017-10-30T08:35:21.387Z,1.37
2017-10-30T08:36:26.789Z,1.27
2017-10-30T08:37:32.334Z,1.55
2017-10-30T08:38:37.440Z,1.20
2017-10-30T08:39:43.611Z,1.15
2017-10-30T08:40:49.062Z,1.30
2017-10-30T08:41:54.821Z,1.55
2017-10-30T08:42:59.781Z,1.48
2017-10-30T08:44:06.045Z,1.20
2017-10-30T08:45:11.750Z,0.80
2017-10-30T08:46:17.517Z,1.55
2017-10-30T08:47:23.682Z,1.48
2017-10-30T08:48:28.760Z,1.15
2017-10-30T08:49:34.614Z,1.70
2017-10-30T08:50:41.173Z,1.00
2017-10-30T08:51:46.589Z,1.42
2017-10-30T08:52:51.778Z,1.20
2017-10-30T08:53:56.842Z,1.12
2017-10-30T08:55:02.296Z,1.25
2017-10-30T08:56:07.728Z,1.25
2017-10-30T08:57:13.901Z,1.08
2017-10-30T08:58:19.739Z,1.05
2017-10-30T08:59:27.009Z,1.00
2017-10-30T09:00:32.330Z,1.37
2017-10-30T09:01:37.861Z,0.93
2017-10-30T09:02:43.327Z,0.82
2017-10-30T09:03:48.759Z,1.48
2017-10-30T09:04:54.729Z,1.08
2017-10-30T09:06:00.184Z,0.93
2017-10-30T09:07:05.261Z,1.00
2017-10-30T09:08:11.002Z,0.80
2017-10-30T09:09:17.190Z,1.12
2017-10-30T09:10:22.384Z,1.52
2017-10-30T09:11:28.180Z,2.37
2017-10-30T09:12:33.363Z,1.00
2017-10-30T09:13:39.297Z,0.88
2017-10-30T09:14:45.280Z,1.70
2017-10-30T09:15:50.689Z,1.00
2017-10-30T09:16:56.902Z,1.20
2017-10-30T09:18:01.952Z,1.20
2017-10-30T09:19:07.825Z,1.42
2017-10-30T09:20:13.648Z,1.50
2017-10-30T09:21:19.967Z,1.27
2017-10-30T09:22:25.064Z,1.08
2017-10-30T09:23:30.126Z,1.45
2017-10-30T09:24:35.187Z,1.00
2017-10-30T09:25:41.377Z,1.15
2017-10-30T09:26:46.801Z,1.52
2017-10-30T09:27:51.888Z,1.20
2017-10-30T09:28:57.734Z,1.80
2017-10-30T09:30:04.024Z,1.35
2017-10-30T09:31:10.054Z,1.20
2017-10-30T09:32:15.256Z,1.10
2017-10-30T09:33:21.210Z,1.00
2017-10-30T09:34:27.435Z,0.98
2017-10-30T09:35:32.492Z,0.90
2017-10-30T09:36:38.376Z,1.17
2017-10-30T09:37:43.442Z,1.00
2017-10-30T09:38:48.876Z,1.45
2017-10-30T09:39:53.957Z,1.33
2017-10-30T09:40:59.012Z,1.15
2017-10-30T09:42:04.428Z,0.95
2017-10-30T09:43:09.832Z,0.90
2017-10-30T09:44:15.268Z,1.08
2017-10-30T09:45:20.686Z,0.95
2017-10-30T09:46:26.858Z,0.60
2017-10-30T09:47:31.933Z,0.90
2017-10-30T09:48:37.412Z,0.80
2017-10-30T09:49:42.882Z,0.82
2017-10-30T09:50:47.936Z,0.95
2017-10-30T09:51:53.018Z,0.77
2017-10-30T09:52:58.508Z,0.85
2017-10-30T09:54:04.689Z,0.95
2017-10-30T09:55:09.650Z,1.50
2017-10-30T09:56:15.899Z,0.98
2017-10-30T09:57:21.315Z,1.20
2017-10-30T09:58:26.768Z,1.27
2017-10-30T09:59:33.349Z,0.90
2017-10-30T10:00:38.798Z,1.08
2017-10-30T10:01:44.629Z,1.00
2017-10-30T10:02:51.227Z,1.05
2017-10-30T10:03:56.749Z,0.73
2017-10-30T10:05:02.278Z,0.90
2017-10-30T10:06:08.502Z,0.90
2017-10-30T10:07:14.083Z,0.80
2017-10-30T10:08:19.230Z,0.98
2017-10-30T10:09:24.730Z,1.20
2017-10-30T10:10:31.305Z,0.70
2017-10-30T10:11:37.349Z,1.17
2017-10-30T10:12:43.525Z,0.88
2017-10-30T10:13:48.961Z,0.80
2017-10-30T10:14:54.879Z,0.77
2017-10-30T10:16:01.324Z,1.05
2017-10-30T10:17:08.757Z,0.90
2017-10-30T10:18:14.054Z,0.62
2017-10-30T10:19:19.142Z,0.70
2017-10-30T10:20:25.905Z,0.60
2017-10-30T10:21:31.002Z,0.65
2017-10-30T10:22:36.157Z,0.82
2017-10-30T10:23:41.590Z,0.80
2017-10-30T10:24:46.912Z,0.70
2017-10-30T10:25:53.659Z,0.62
2017-10-30T10:26:58.915Z,0.73
2017-10-30T10:28:04.793Z,0.80
2017-10-30T10:29:10.205Z,1.23
2017-10-30T10:30:15.364Z,0.63
2017-10-30T10:31:20.796Z,0.60
2017-10-30T10:32:26.741Z,0.60
2017-10-30T10:33:31.849Z,0.80
2017-10-30T10:34:37.375Z,0.70
2017-10-30T10:35:42.729Z,0.65
2017-10-30T10:36:48.335Z,0.77
2017-10-30T10:37:53.433Z,0.70
2017-10-30T10:38:58.328Z,0.57
2017-10-30T10:40:03.750Z,0.50
2017-10-30T10:41:10.849Z,0.43
2017-10-30T10:42:16.269Z,0.75
2017-10-30T10:43:21.678Z,0.75
2017-10-30T10:44:27.548Z,0.60
2017-10-30T10:45:32.337Z,0.90
2017-10-30T10:46:38.515Z,0.65
2017-10-30T10:47:44.551Z,0.70
2017-10-30T10:48:49.990Z,0.73
2017-10-30T10:49:55.424Z,0.70
2017-10-30T10:51:01.201Z,0.85
2017-10-30T10:52:07.196Z,0.88
2017-10-30T10:53:13.756Z,0.80
2017-10-30T10:54:20.309Z,0.70
2017-10-30T10:55:26.125Z,0.60
2017-10-30T10:56:31.890Z,0.70
2017-10-30T10:57:38.189Z,0.70
2017-10-30T10:58:43.747Z,0.90
2017-10-30T10:59:49.488Z,1.90
2017-10-30T11:00:54.625Z,1.00
2017-10-30T11:02:00.368Z,0.70
2017-10-30T11:03:06.110Z,0.50
2017-10-30T11:04:11.877Z,0.60
2017-10-30T11:05:18.385Z,0.70
2017-10-30T11:06:24.784Z,0.70
2017-10-30T11:07:31.325Z,0.60
2017-10-30T11:08:37.124Z,0.70
2017-10-30T11:09:43.128Z,0.65
2017-10-30T11:10:49.660Z,0.73
2017-10-30T11:11:55.117Z,0.50
2017-10-30T11:13:01.074Z,0.80
2017-10-30T11:14:07.626Z,0.50
2017-10-30T11:15:13.044Z,0.60
2017-10-30T11:16:18.335Z,0.50
2017-10-30T11:17:23.416Z,0.50
2017-10-30T11:18:28.478Z,0.80
2017-10-30T11:19:34.424Z,0.70
2017-10-30T11:20:40.228Z,0.50
2017-10-30T11:21:46.016Z,0.50
2017-10-30T11:22:51.789Z,0.90
2017-10-30T11:23:57.544Z,0.50
2017-10-30T11:25:03.307Z,0.60
2017-10-30T11:26:08.581Z,0.77
2017-10-30T11:27:14.355Z,0.65
2017-10-30T11:28:20.047Z,0.50
2017-10-30T11:29:25.849Z,0.80
2017-10-30T11:30:31.711Z,1.25
2017-10-30T11:31:38.956Z,0.60
2017-10-30T11:32:44.809Z,0.70
2017-10-30T11:33:50.578Z,0.70
2017-10-30T11:34:57.260Z,1.15
2017-10-30T11:36:03.028Z,0.80
2017-10-30T11:37:08.785Z,0.75
2017-10-30T11:38:14.333Z,0.60
2017-10-30T11:39:19.845Z,0.70
2017-10-30T11:40:25.456Z,0.70
2017-10-30T11:41:31.219Z,0.50
2017-10-30T11:42:36.960Z,0.82
2017-10-30T11:43:42.713Z,0.70
2017-10-30T11:44:48.485Z,0.73
2017-10-30T11:45:54.237Z,0.80
2017-10-30T11:47:00.023Z,0.57
2017-10-30T11:48:06.281Z,0.73
2017-10-30T11:49:11.873Z,0.50
2017-10-30T11:50:17.941Z,0.60
2017-10-30T11:51:24.628Z,0.50
2017-10-30T11:52:30.610Z,0.70
2017-10-30T11:53:36.662Z,0.60
2017-10-30T11:54:42.414Z,0.80
2017-10-30T11:55:48.702Z,0.80
2017-10-30T11:56:55.236Z,1.05
2017-10-30T11:58:00.872Z,0.50
2017-10-30T11:59:06.638Z,0.80
2017-10-30T12:00:12.604Z,0.60
2017-10-30T12:01:18.163Z,1.10
2017-10-30T12:02:23.908Z,0.60
2017-10-30T12:03:29.823Z,0.70
2017-10-30T12:04:36.356Z,1.20
2017-10-30T12:05:42.096Z,0.70
2017-10-30T12:06:47.905Z,0.70
2017-10-30T12:07:53.474Z,1.00
2017-10-30T12:08:58.944Z,0.77
2017-10-30T12:10:05.565Z,0.55
2017-10-30T12:11:11.381Z,0.40
2017-10-30T12:12:17.263Z,0.60
2017-10-30T12:13:23.872Z,0.80
2017-10-30T12:14:29.789Z,0.50
2017-10-30T12:15:35.569Z,0.50
2017-10-30T12:16:41.486Z,0.60
2017-10-30T12:17:47.392Z,0.55
2017-10-30T12:18:54.096Z,0.60
2017-10-30T12:20:00.206Z,0.73
2017-10-30T12:21:07.580Z,0.50
2017-10-30T12:22:13.493Z,1.23
2017-10-30T12:23:19.625Z,0.50
2017-10-30T12:24:25.535Z,0.60
2017-10-30T12:25:32.985Z,0.60
2017-10-30T12:26:38.747Z,0.60
2017-10-30T12:27:44.489Z,0.50
2017-10-30T12:28:51.696Z,0.70
2017-10-30T12:29:57.462Z,0.60
2017-10-30T12:31:03.222Z,0.47
2017-10-30T12:32:08.976Z,0.70
2017-10-30T12:33:14.724Z,0.60
2017-10-30T12:34:21.164Z,0.57
2017-10-30T12:35:26.959Z,0.55
2017-10-30T12:36:32.803Z,0.70
2017-10-30T12:37:38.809Z,0.60
2017-10-30T12:38:44.730Z,0.60
2017-10-30T12:39:50.776Z,1.20
2017-10-30T12:40:56.734Z,0.50
2017-10-30T12:42:03.348Z,0.50
2017-10-30T12:43:09.121Z,0.50
2017-10-30T12:44:16.577Z,1.00
2017-10-30T12:45:22.375Z,0.50
2017-10-30T12:46:28.921Z,0.47
2017-10-30T12:47:34.735Z,0.40
2017-10-30T12:48:41.353Z,0.50
2017-10-30T12:49:47.378Z,0.70
2017-10-30T12:50:53.199Z,0.60
2017-10-30T12:51:59.977Z,0.60
2017-10-30T12:53:06.372Z,0.50
2017-10-30T12:54:12.410Z,0.60
2017-10-30T12:55:18.186Z,0.50
2017-10-30T12:56:24.028Z,0.50
2017-10-30T12:57:30.597Z,0.60
2017-10-30T12:58:37.125Z,0.52
2017-10-30T12:59:42.925Z,0.62
2017-10-30T13:00:48.762Z,0.45
2017-10-30T13:01:55.190Z,0.60
2017-10-30T13:03:00.845Z,0.50
2017-10-30T13:04:06.597Z,0.55
2017-10-30T13:05:13.117Z,0.60
2017-10-30T13:06:18.869Z,0.70
2017-10-30T13:07:24.704Z,0.60
2017-10-30T13:08:30.450Z,0.70
2017-10-30T13:09:36.305Z,0.70
2017-10-30T13:10:41.716Z,0.55
2017-10-30T13:11:47.466Z,0.65
2017-10-30T13:12:53.333Z,0.80
2017-10-30T13:13:59.110Z,0.50
2017-10-30T13:15:04.852Z,0.85
2017-10-30T13:16:11.390Z,0.52
2017-10-30T13:17:17.130Z,0.93
2017-10-30T13:18:22.896Z,1.00
2017-10-30T13:19:29.688Z,0.80
2017-10-30T13:20:35.516Z,1.65
2017-10-30T13:21:41.681Z,0.50
2017-10-30T13:22:47.429Z,1.40
2017-10-30T13:23:53.241Z,0.73
2017-10-30T13:24:59.752Z,0.60
2017-10-30T13:26:05.496Z,0.50
2017-10-30T13:27:11.244Z,0.95
2017-10-30T13:28:16.813Z,0.85
2017-10-30T13:29:23.360Z,0.75
2017-10-30T13:30:28.901Z,0.60
2017-10-30T13:31:34.704Z,0.50
2017-10-30T13:32:40.486Z,0.50
2017-10-30T13:33:46.307Z,1.27
2017-10-30T13:34:52.077Z,0.50
2017-10-30T13:35:57.818Z,0.50
2017-10-30T13:37:03.585Z,0.40
2017-10-30T13:38:09.376Z,0.57
2017-10-30T13:39:15.969Z,0.80
2017-10-30T13:40:21.741Z,0.50
2017-10-30T13:41:27.725Z,0.47
2017-10-30T13:42:34.244Z,1.10
2017-10-30T13:43:40.026Z,0.60
2017-10-30T13:44:46.587Z,0.55
2017-10-30T13:45:53.125Z,0.70
2017-10-30T13:46:59.646Z,0.50
2017-10-30T13:48:04.792Z,0.50
2017-10-30T13:49:10.537Z,0.52
2017-10-30T13:50:16.280Z,0.75
2017-10-30T13:51:22.065Z,0.50
2017-10-30T13:52:27.835Z,0.60
2017-10-30T13:53:33.586Z,0.52
2017-10-30T13:54:39.352Z,0.60
2017-10-30T13:55:45.130Z,0.65
2017-10-30T13:56:50.934Z,0.60
2017-10-30T13:57:57.426Z,0.75
2017-10-30T13:59:03.473Z,0.60
2017-10-30T14:00:09.242Z,0.70
2017-10-30T14:01:15.029Z,0.70
2017-10-30T14:02:20.804Z,0.50
2017-10-30T14:03:26.567Z,0.62
2017-10-30T14:04:32.359Z,1.00
2017-10-30T14:05:38.908Z,0.80
2017-10-30T14:06:44.664Z,0.60
2017-10-30T14:07:51.204Z,0.62
2017-10-30T14:08:58.526Z,0.70
2017-10-30T14:10:04.325Z,0.70
2017-10-30T14:11:10.156Z,0.68
2017-10-30T14:12:15.941Z,0.62
2017-10-30T14:13:22.126Z,0.60
2017-10-30T14:14:27.869Z,0.85
2017-10-30T14:15:33.649Z,0.70
2017-10-30T14:16:39.390Z,0.70
2017-10-30T14:17:45.137Z,0.75
2017-10-30T14:18:50.976Z,0.52
2017-10-30T14:19:56.761Z,0.70
2017-10-30T14:21:02.284Z,0.80
2017-10-30T14:22:08.029Z,0.70
2017-10-30T14:23:13.797Z,0.52
2017-10-30T14:24:20.130Z,0.60
2017-10-30T14:25:25.877Z,0.60
2017-10-30T14:26:31.639Z,0.93
2017-10-30T14:27:38.484Z,0.60
2017-10-30T14:28:44.249Z,0.70
2017-10-30T14:29:50.031Z,1.40
2017-10-30T14:30:56.096Z,0.50
2017-10-30T14:32:02.288Z,0.50
2017-10-30T14:33:09.006Z,0.70
2017-10-30T14:34:14.745Z,0.60
2017-10-30T14:35:20.536Z,0.73
2017-10-30T14:36:26.075Z,0.88